Time;durP1;ratioP1;P1;durP2;ratioP2;P2;SDS_P1;SDS_P2;PMS_P1;PMS_P2;Temp;Humidity;BMP_temperature;BMP_pressure;BME280_temperature;BME280_humidity;BME280_pressure;Samples;Min_cycle;Max_cycle;Signal;HPM_P1;HPM_P2
2023/02/18 00:01:03;;;;;;;2.00;1.90;;;10.00;99.90;;;;;;5006637;28;20430;-60
2023/02/18 00:03:29;;;;;;;3.80;1.73;;;10.00;99.90;;;;;;5027880;28;20211;-59
2023/02/18 00:05:55;;;;;;;1.70;1.60;;;10.00;99.90;;;;;;5027714;28;20442;-59
2023/02/18 00:08:21;;;;;;;1.50;1.40;;;10.00;99.90;;;;;;5029874;28;20421;-59
2023/02/18 00:10:47;;;;;;;2.23;2.03;;;10.00;99.90;;;;;;5025355;28;20645;-60
2023/02/18 00:13:13;;;;;;;1.40;1.30;;;10.00;99.90;;;;;;5026714;28;20422;-59
2023/02/18 00:15:39;;;;;;;1.40;1.20;;;10.00;99.90;;;;;;5024166;28;20465;-61
2023/02/18 00:18:05;;;;;;;5.20;1.50;;;10.00;99.90;;;;;;5027553;28;20234;-59
2023/02/18 00:20:32;;;;;;;2.10;1.67;;;9.90;99.90;;;;;;5027694;28;20431;-59
2023/02/18 00:22:58;;;;;;;1.67;1.50;;;9.90;99.90;;;;;;5023783;28;20841;-59
2023/02/18 00:25:24;;;;;;;2.90;1.50;;;9.90;99.90;;;;;;5026360;28;21054;-59
2023/02/18 00:27:50;;;;;;;2.67;1.67;;;9.90;99.90;;;;;;5026695;28;20414;-58
2023/02/18 00:30:16;;;;;;;1.43;1.33;;;9.90;99.90;;;;;;5024992;28;20781;-59
2023/02/18 00:32:41;;;;;;;1.97;1.30;;;9.90;99.90;;;;;;5024964;28;20278;-60
2023/02/18 00:35:07;;;;;;;4.13;3.73;;;9.90;99.90;;;;;;5026899;28;20203;-61
2023/02/18 00:37:33;;;;;;;2.80;2.60;;;9.90;99.90;;;;;;5024911;28;20707;-60
2023/02/18 00:39:58;;;;;;;1.80;1.70;;;9.90;99.90;;;;;;5026600;28;20168;-57
2023/02/18 00:42:24;;;;;;;1.60;1.50;;;9.90;99.90;;;;;;5026647;28;20314;-59
2023/02/18 00:44:50;;;;;;;6.13;3.93;;;9.90;99.90;;;;;;5026999;28;20652;-59
2023/02/18 00:47:15;;;;;;;2.90;2.60;;;9.90;99.90;;;;;;5025579;28;21052;-59
2023/02/18 00:49:41;;;;;;;1.83;1.73;;;9.90;99.90;;;;;;5025256;28;20679;-60
2023/02/18 00:52:06;;;;;;;1.67;1.40;;;9.90;99.90;;;;;;5024443;28;20282;-59
2023/02/18 00:54:32;;;;;;;1.47;1.37;;;9.90;99.90;;;;;;5012541;28;22389;-59
2023/02/18 00:56:58;;;;;;;1.50;1.33;;;9.90;99.90;;;;;;5022146;28;20194;-59
2023/02/18 00:59:23;;;;;;;1.57;1.47;;;9.90;99.90;;;;;;5025982;28;20662;-60
2023/02/18 01:01:49;;;;;;;1.87;1.37;;;9.80;99.90;;;;;;5013436;28;20183;-59
2023/02/18 01:04:14;;;;;;;1.60;1.50;;;9.80;99.90;;;;;;5025471;28;20188;-61
2023/02/18 01:06:40;;;;;;;5.10;1.50;;;9.90;99.90;;;;;;5025907;28;20203;-59
2023/02/18 01:09:06;;;;;;;1.70;1.40;;;9.80;99.90;;;;;;5025976;28;20214;-59
2023/02/18 01:11:32;;;;;;;2.40;1.80;;;9.80;99.90;;;;;;5024967;28;20199;-60
2023/02/18 01:13:58;;;;;;;3.23;1.50;;;9.80;99.90;;;;;;5028532;28;20469;-60
2023/02/18 01:16:23;;;;;;;1.60;1.50;;;9.80;99.90;;;;;;5025760;28;20458;-59
2023/02/18 01:18:49;;;;;;;1.57;1.47;;;9.80;99.90;;;;;;5025511;28;20640;-59
2023/02/18 01:21:15;;;;;;;1.73;1.43;;;9.80;99.90;;;;;;5025317;28;20203;-59
2023/02/18 01:23:41;;;;;;;2.70;1.83;;;9.80;99.90;;;;;;5025575;28;20783;-59
2023/02/18 01:26:08;;;;;;;1.60;1.50;;;9.80;99.90;;;;;;5025537;28;20252;-59
2023/02/18 01:28:34;;;;;;;2.60;1.40;;;9.80;99.90;;;;;;5025746;28;20434;-60
2023/02/18 01:31:08;;;;;;;1.33;1.23;;;9.80;99.90;;;;;;5024447;28;20849;-59
2023/02/18 01:33:34;;;;;;;1.53;1.43;;;9.80;99.90;;;;;;5026127;28;20457;-60
2023/02/18 01:36:00;;;;;;;1.60;1.50;;;9.80;99.90;;;;;;5025066;28;20838;-59
2023/02/18 01:38:25;;;;;;;1.37;1.23;;;9.70;99.90;;;;;;5021819;28;20435;-58
2023/02/18 01:40:51;;;;;;;2.50;1.60;;;9.70;99.90;;;;;;5022940;28;20187;-60
2023/02/18 01:43:18;;;;;;;1.60;1.50;;;9.70;99.90;;;;;;5027788;28;20183;-59
2023/02/18 01:46:02;;;;;;;2.50;1.47;;;9.70;99.90;;;;;;5023651;28;20552;-59
2023/02/18 01:48:40;;;;;;;2.23;1.67;;;9.70;99.90;;;;;;5025015;28;20425;-59
2023/02/18 01:51:40;;;;;;;1.30;1.27;;;9.60;99.90;;;;;;5020965;28;20457;-58
2023/02/18 01:54:05;;;;;;;2.23;1.73;;;9.60;99.90;;;;;;4981419;28;20457;-59
2023/02/18 01:56:44;;;;;;;1.40;1.30;;;9.60;99.90;;;;;;5022801;28;20449;-59
2023/02/18 01:59:14;;;;;;;1.50;1.40;;;9.60;99.90;;;;;;5024416;28;20164;-59
2023/02/18 02:01:43;;;;;;;1.87;1.27;;;9.60;99.90;;;;;;5022277;28;20430;-58
2023/02/18 02:04:08;;;;;;;2.43;1.33;;;9.60;99.90;;;;;;5028842;28;20443;-59
2023/02/18 02:06:34;;;;;;;1.30;1.20;;;9.60;99.90;;;;;;5027666;28;21213;-59
2023/02/18 02:09:03;;;;;;;2.37;1.17;;;9.60;99.90;;;;;;5026295;28;20188;-59
2023/02/18 02:11:40;;;;;;;2.30;1.03;;;9.60;99.90;;;;;;5025610;28;20199;-59
2023/02/18 02:14:21;;;;;;;1.10;1.10;;;9.60;99.90;;;;;;5027038;28;20421;-59
2023/02/18 02:16:57;;;;;;;1.20;1.10;;;9.60;99.90;;;;;;5029333;28;20887;-60
2023/02/18 02:19:41;;;;;;;1.10;1.10;;;9.60;99.90;;;;;;5031932;28;20496;-59
2023/02/18 02:22:45;;;;;;;1.23;1.13;;;9.60;99.90;;;;;;5013750;28;20458;-59
2023/02/18 02:26:01;;;;;;;1.17;1.10;;;9.60;99.90;;;;;;5027734;28;20520;-59
2023/02/18 02:28:54;;;;;;;1.23;1.13;;;9.60;99.90;;;;;;4992206;28;20449;-59
2023/02/18 02:31:47;;;;;;;1.40;1.30;;;9.60;99.90;;;;;;5016404;28;20465;-59
2023/02/18 02:34:46;;;;;;;1.23;1.13;;;9.60;99.90;;;;;;5024885;28;20426;-59
2023/02/18 02:37:36;;;;;;;1.40;1.30;;;9.60;99.90;;;;;;5007275;28;20450;-59
2023/02/18 02:40:23;;;;;;;1.40;1.30;;;9.60;99.90;;;;;;5019323;28;20946;-59
2023/02/18 02:43:19;;;;;;;2.30;1.93;;;9.60;99.90;;;;;;5029408;28;20449;-59
2023/02/18 02:46:08;;;;;;;3.57;1.93;;;9.60;99.90;;;;;;5020014;28;20450;-60
2023/02/18 02:48:45;;;;;;;1.50;1.40;;;9.60;99.90;;;;;;5027749;28;20436;-59
2023/02/18 02:51:19;;;;;;;2.00;1.80;;;9.60;99.90;;;;;;5025679;28;20476;-60
2023/02/18 02:53:45;;;;;;;2.57;1.40;;;9.60;99.90;;;;;;5011064;28;20422;-60
2023/02/18 02:56:17;;;;;;;1.50;1.40;;;9.60;99.90;;;;;;5026854;28;20469;-59
2023/02/18 02:58:47;;;;;;;1.40;1.27;;;9.60;99.90;;;;;;5025525;28;20184;-59
2023/02/18 03:01:23;;;;;;;2.07;1.60;;;9.60;99.90;;;;;;5023971;28;20461;-59
2023/02/18 03:04:27;;;;;;;3.83;1.70;;;9.60;99.90;;;;;;5021591;28;20888;-59
2023/02/18 03:07:11;;;;;;;1.67;1.57;;;9.50;99.90;;;;;;5028340;28;20438;-59
2023/02/18 03:09:51;;;;;;;2.23;1.60;;;9.60;99.90;;;;;;5014478;28;20432;-59
2023/02/18 03:12:31;;;;;;;1.60;1.50;;;9.50;99.90;;;;;;5027258;28;20456;-59
2023/02/18 03:15:36;;;;;;;2.00;1.80;;;9.50;99.90;;;;;;5027711;28;20502;-59
2023/02/18 03:18:14;;;;;;;2.20;2.00;;;9.50;99.90;;;;;;5032710;28;20423;-61
2023/02/18 03:20:47;;;;;;;2.97;1.83;;;9.50;99.90;;;;;;5019340;28;20435;-59
2023/02/18 03:23:19;;;;;;;1.97;1.87;;;9.50;99.90;;;;;;5020759;28;20419;-59
2023/02/18 03:25:44;;;;;;;2.80;2.00;;;9.50;99.90;;;;;;5012023;28;20449;-59
2023/02/18 03:28:17;;;;;;;2.07;1.80;;;9.50;99.90;;;;;;5020612;28;20442;-59
2023/02/18 03:30:46;;;;;;;2.23;2.03;;;9.50;99.90;;;;;;5028587;28;20176;-59
2023/02/18 03:33:17;;;;;;;2.67;1.70;;;9.40;99.90;;;;;;5030440;28;20411;-60
2023/02/18 03:35:44;;;;;;;2.03;1.93;;;9.40;99.90;;;;;;5028559;28;20450;-60
2023/02/18 03:38:35;;;;;;;2.00;1.80;;;9.40;99.90;;;;;;5025213;28;20644;-59
2023/02/18 03:41:01;;;;;;;2.47;2.10;;;9.40;99.90;;;;;;5022788;28;20431;-60
2023/02/18 03:43:28;;;;;;;1.90;1.63;;;9.40;99.90;;;;;;5027374;28;20529;-60
2023/02/18 03:45:53;;;;;;;2.13;1.90;;;9.40;99.90;;;;;;5026977;28;20290;-59
2023/02/18 03:48:19;;;;;;;1.93;1.80;;;9.40;99.90;;;;;;5036702;28;20489;-60
2023/02/18 03:50:44;;;;;;;2.17;1.97;;;9.40;99.90;;;;;;5029312;28;20176;-60
2023/02/18 03:53:10;;;;;;;2.30;1.60;;;9.40;99.90;;;;;;5028690;28;20187;-59
2023/02/18 03:55:36;;;;;;;2.00;1.90;;;9.40;99.90;;;;;;5024796;28;20326;-59
2023/02/18 03:58:01;;;;;;;2.10;1.73;;;9.40;99.90;;;;;;5029660;28;20171;-60
2023/02/18 04:00:27;;;;;;;2.00;1.70;;;9.40;99.90;;;;;;5031516;28;20214;-59
2023/02/18 04:02:52;;;;;;;2.17;1.90;;;9.40;99.90;;;;;;5029700;28;20846;-59
2023/02/18 04:05:18;;;;;;;2.90;1.73;;;9.40;99.90;;;;;;5026511;28;20188;-59
2023/02/18 04:07:44;;;;;;;2.33;2.13;;;9.40;99.90;;;;;;5026802;28;20276;-59
2023/02/18 04:10:10;;;;;;;2.13;1.90;;;9.40;99.90;;;;;;5027599;28;20846;-59
2023/02/18 04:12:35;;;;;;;2.03;1.73;;;9.40;99.90;;;;;;5024242;28;20614;-60
2023/02/18 04:15:01;;;;;;;1.63;1.53;;;9.40;99.90;;;;;;5025829;28;20427;-59
2023/02/18 04:17:27;;;;;;;2.33;1.80;;;9.40;99.90;;;;;;5009588;28;20195;-60
2023/02/18 04:19:52;;;;;;;1.77;1.43;;;9.30;99.90;;;;;;5031326;28;20195;-58
2023/02/18 04:22:18;;;;;;;1.70;1.60;;;9.40;99.90;;;;;;5024310;28;20175;-60
2023/02/18 04:24:43;;;;;;;1.87;1.73;;;9.40;99.90;;;;;;5024128;28;20620;-58
2023/02/18 04:27:09;;;;;;;1.97;1.60;;;9.40;99.90;;;;;;5009404;28;20192;-59
2023/02/18 04:29:35;;;;;;;1.77;1.67;;;9.40;99.90;;;;;;5018243;28;20274;-59
2023/02/18 04:32:00;;;;;;;1.50;1.40;;;9.40;99.90;;;;;;5030459;28;20242;-59
2023/02/18 04:34:26;;;;;;;3.43;1.97;;;9.30;99.90;;;;;;5030530;28;20174;-59
2023/02/18 04:36:52;;;;;;;1.43;1.33;;;9.30;99.90;;;;;;5024769;28;20195;-59
2023/02/18 04:39:17;;;;;;;1.57;1.47;;;9.30;99.90;;;;;;5025689;28;20202;-59
2023/02/18 04:41:43;;;;;;;1.70;1.60;;;9.30;99.90;;;;;;5028926;28;20187;-60
2023/02/18 04:44:08;;;;;;;1.50;1.40;;;9.30;99.90;;;;;;5026534;28;20593;-60
2023/02/18 04:46:34;;;;;;;1.60;1.50;;;9.30;99.90;;;;;;5021660;28;20203;-59
2023/02/18 04:49:00;;;;;;;1.60;1.50;;;9.30;99.90;;;;;;5027474;28;20183;-60
2023/02/18 04:51:26;;;;;;;1.60;1.50;;;9.30;99.90;;;;;;5021776;28;20681;-59
2023/02/18 04:53:51;;;;;;;1.50;1.40;;;9.30;99.90;;;;;;5024615;28;20251;-60
2023/02/18 04:56:17;;;;;;;2.00;1.80;;;9.30;99.90;;;;;;5026062;28;20303;-59
2023/02/18 04:58:42;;;;;;;2.30;1.80;;;9.30;99.90;;;;;;5023920;28;20180;-59
2023/02/18 05:01:09;;;;;;;2.03;1.60;;;9.30;99.90;;;;;;5022296;28;20186;-59
2023/02/18 05:03:34;;;;;;;1.70;1.60;;;9.30;99.90;;;;;;5027949;28;20172;-59
2023/02/18 05:06:00;;;;;;;2.50;1.40;;;9.30;99.90;;;;;;5024085;28;20453;-59
2023/02/18 05:08:25;;;;;;;1.50;1.40;;;9.30;99.90;;;;;;5024351;28;20180;-59
2023/02/18 05:10:51;;;;;;;2.00;1.67;;;9.30;99.90;;;;;;5021462;28;20176;-60
2023/02/18 05:13:17;;;;;;;1.80;1.67;;;9.30;99.90;;;;;;5022819;28;20906;-59
2023/02/18 05:15:42;;;;;;;2.73;1.70;;;9.20;99.90;;;;;;5025110;28;20212;-59
2023/02/18 05:18:08;;;;;;;1.93;1.80;;;9.30;99.90;;;;;;5025197;28;20662;-59
2023/02/18 05:20:34;;;;;;;1.37;1.27;;;9.20;99.90;;;;;;5020453;28;20180;-60
2023/02/18 05:23:00;;;;;;;1.80;1.70;;;9.20;99.90;;;;;;5024959;28;20179;-59
2023/02/18 05:25:25;;;;;;;2.33;1.50;;;9.20;99.90;;;;;;5023142;28;20512;-59
2023/02/18 05:27:51;;;;;;;1.70;1.60;;;9.20;99.90;;;;;;5028390;28;20179;-59
2023/02/18 05:30:17;;;;;;;1.57;1.43;;;9.20;99.90;;;;;;5026170;28;21008;-59
2023/02/18 05:32:42;;;;;;;3.63;1.57;;;9.20;99.90;;;;;;5025886;28;20200;-59
2023/02/18 05:35:08;;;;;;;2.43;1.60;;;9.20;99.90;;;;;;5027429;28;20171;-59
2023/02/18 05:37:34;;;;;;;1.30;1.20;;;9.20;99.90;;;;;;5023677;28;20199;-59
2023/02/18 05:39:59;;;;;;;1.73;1.40;;;9.20;99.90;;;;;;5024776;28;20680;-57
2023/02/18 05:42:25;;;;;;;1.73;1.63;;;9.10;99.90;;;;;;5023420;28;20214;-59
2023/02/18 05:44:50;;;;;;;2.07;1.80;;;9.20;99.90;;;;;;5027672;28;20179;-58
2023/02/18 05:47:16;;;;;;;1.67;1.20;;;9.10;99.90;;;;;;5029847;28;20211;-59
2023/02/18 05:49:42;;;;;;;1.40;1.30;;;9.10;99.90;;;;;;5029719;28;20674;-59
2023/02/18 05:52:09;;;;;;;2.17;1.43;;;9.10;99.90;;;;;;5027917;28;20206;-60
2023/02/18 05:54:35;;;;;;;1.20;1.20;;;9.10;99.90;;;;;;5027901;28;20429;-59
2023/02/18 05:57:01;;;;;;;1.40;1.30;;;9.10;99.90;;;;;;5030566;28;20545;-59
2023/02/18 05:59:27;;;;;;;2.13;1.30;;;9.20;99.90;;;;;;5029244;28;20482;-59
2023/02/18 06:01:53;;;;;;;1.70;1.60;;;9.10;99.90;;;;;;5027632;28;20195;-59
2023/02/18 06:04:19;;;;;;;1.20;1.20;;;9.10;99.90;;;;;;5031780;28;20184;-59
2023/02/18 06:06:44;;;;;;;1.33;1.23;;;9.10;99.90;;;;;;5018883;28;20936;-59
2023/02/18 06:09:10;;;;;;;2.17;1.50;;;9.10;99.90;;;;;;5030924;28;20326;-59
2023/02/18 06:11:36;;;;;;;1.40;1.30;;;9.10;99.90;;;;;;5027229;28;20206;-59
2023/02/18 06:14:02;;;;;;;1.60;1.50;;;9.10;99.90;;;;;;5028831;28;20280;-61
2023/02/18 06:16:28;;;;;;;1.40;1.13;;;9.10;99.90;;;;;;5027971;28;20214;-58
2023/02/18 06:18:54;;;;;;;1.30;1.20;;;9.10;99.90;;;;;;5029742;28;20183;-60
2023/02/18 06:21:19;;;;;;;1.20;1.10;;;9.10;99.90;;;;;;5020064;28;20552;-59
2023/02/18 06:23:45;;;;;;;1.57;1.47;;;9.10;99.90;;;;;;5029596;28;20649;-60
2023/02/18 06:26:11;;;;;;;1.97;1.40;;;9.10;99.90;;;;;;5026071;28;20214;-58
2023/02/18 06:28:36;;;;;;;1.83;1.30;;;9.10;99.90;;;;;;5025447;28;20173;-59
2023/02/18 06:31:02;;;;;;;1.17;1.07;;;9.10;99.90;;;;;;5025882;28;20210;-61
2023/02/18 06:33:28;;;;;;;1.10;1.10;;;9.10;99.90;;;;;;5024682;28;20206;-60
2023/02/18 06:35:59;;;;;;;1.57;1.47;;;9.00;99.90;;;;;;5030025;28;20287;-59
2023/02/18 06:38:25;;;;;;;1.53;1.40;;;9.10;99.90;;;;;;5025644;28;20171;-59
2023/02/18 06:40:51;;;;;;;1.20;1.10;;;9.10;99.90;;;;;;5027244;28;20437;-60
2023/02/18 06:43:17;;;;;;;1.40;1.30;;;9.10;99.90;;;;;;5025313;28;20203;-59
2023/02/18 06:45:43;;;;;;;1.10;1.10;;;9.00;99.90;;;;;;5022537;28;20199;-60
2023/02/18 06:48:09;;;;;;;1.30;1.13;;;9.10;99.90;;;;;;5023452;28;20426;-59
2023/02/18 06:50:35;;;;;;;1.07;1.07;;;9.10;99.90;;;;;;5029006;28;20427;-59
2023/02/18 06:53:01;;;;;;;1.30;1.20;;;9.00;99.90;;;;;;5024149;28;20461;-60
2023/02/18 06:55:26;;;;;;;1.77;1.30;;;9.10;99.90;;;;;;5028229;28;20225;-59
2023/02/18 06:57:52;;;;;;;1.30;1.20;;;9.10;99.90;;;;;;5029987;28;20184;-59
2023/02/18 07:00:18;;;;;;;1.10;1.10;;;9.10;99.90;;;;;;5028393;28;20183;-59
2023/02/18 07:02:43;;;;;;;1.50;1.40;;;9.10;99.90;;;;;;5022479;28;20651;-60
2023/02/18 07:05:09;;;;;;;1.63;1.53;;;9.10;99.90;;;;;;5020607;28;20543;-59
2023/02/18 07:07:34;;;;;;;4.57;3.30;;;9.10;99.90;;;;;;5027263;28;20199;-59
2023/02/18 07:10:00;;;;;;;4.10;2.80;;;9.10;99.90;;;;;;5026014;28;20729;-58
2023/02/18 07:12:26;;;;;;;1.50;1.40;;;9.10;99.90;;;;;;5005121;28;20278;-59
2023/02/18 07:14:51;;;;;;;1.47;1.37;;;9.10;99.90;;;;;;5018834;28;20566;-59
2023/02/18 07:17:17;;;;;;;1.50;1.40;;;9.10;99.90;;;;;;5028333;28;20676;-61
2023/02/18 07:19:43;;;;;;;1.80;1.13;;;9.10;99.90;;;;;;5023126;28;20168;-60
2023/02/18 07:22:09;;;;;;;1.40;1.30;;;9.10;99.90;;;;;;5021012;28;20249;-59
2023/02/18 07:24:34;;;;;;;1.50;1.40;;;9.20;99.90;;;;;;5026662;28;20195;-59
2023/02/18 07:27:00;;;;;;;1.93;1.80;;;9.20;99.90;;;;;;5028797;28;20199;-59
2023/02/18 07:29:25;;;;;;;1.93;1.83;;;9.20;99.90;;;;;;5023465;28;20611;-60
2023/02/18 07:31:51;;;;;;;1.80;1.50;;;9.20;99.90;;;;;;5026671;28;20200;-60
2023/02/18 07:34:16;;;;;;;1.40;1.30;;;9.30;99.90;;;;;;5023202;28;20894;-59
2023/02/18 07:36:42;;;;;;;1.63;1.33;;;9.30;99.90;;;;;;5023367;28;20250;-59
2023/02/18 07:39:08;;;;;;;1.67;1.43;;;9.30;99.90;;;;;;5027524;28;20591;-60
2023/02/18 07:41:33;;;;;;;1.23;1.13;;;9.30;99.90;;;;;;5022201;28;20180;-59
2023/02/18 07:43:59;;;;;;;2.17;1.77;;;9.30;99.90;;;;;;5038716;28;20546;-59
2023/02/18 07:46:25;;;;;;;1.03;1.03;;;9.40;99.90;;;;;;5028013;28;20692;-59
2023/02/18 07:48:50;;;;;;;0.90;0.90;;;9.40;99.90;;;;;;5009720;28;20271;-59
2023/02/18 07:51:16;;;;;;;1.20;1.10;;;9.50;99.90;;;;;;5024610;28;20246;-59
2023/02/18 07:53:41;;;;;;;1.43;1.33;;;9.50;99.90;;;;;;5023861;28;20207;-59
2023/02/18 07:56:07;;;;;;;1.40;1.27;;;9.50;99.90;;;;;;5019111;28;20188;-59
2023/02/18 07:58:35;;;;;;;3.60;1.10;;;9.60;99.90;;;;;;5016230;28;20180;-59
2023/02/18 08:01:09;;;;;;;1.30;1.20;;;9.70;99.90;;;;;;5017981;28;20266;-60
2023/02/18 08:03:35;;;;;;;1.60;1.50;;;9.70;99.90;;;;;;5023322;28;20422;-60
2023/02/18 08:06:03;;;;;;;1.67;1.37;;;9.80;99.90;;;;;;5021303;28;20445;-60
2023/02/18 08:08:31;;;;;;;1.90;1.70;;;9.90;99.90;;;;;;5024755;28;20262;-60
2023/02/18 08:11:05;;;;;;;2.63;1.87;;;9.90;99.90;;;;;;5020885;28;20454;-59
2023/02/18 08:13:31;;;;;;;2.30;1.30;;;10.00;99.90;;;;;;5019410;28;20481;-60
2023/02/18 08:15:57;;;;;;;2.07;1.50;;;10.10;99.90;;;;;;5023571;28;21054;-59
2023/02/18 08:18:24;;;;;;;1.70;1.60;;;10.20;99.90;;;;;;5022767;28;20171;-59
2023/02/18 08:20:50;;;;;;;2.03;1.50;;;10.20;99.90;;;;;;5022165;28;20481;-60
2023/02/18 08:23:18;;;;;;;4.93;1.40;;;10.30;99.90;;;;;;5023584;28;20434;-60
2023/02/18 08:25:46;;;;;;;1.97;1.60;;;10.30;99.90;;;;;;5019912;28;20447;-60
2023/02/18 08:28:12;;;;;;;2.27;1.50;;;10.40;99.90;;;;;;5025065;28;21122;-59
2023/02/18 08:30:37;;;;;;;2.50;1.30;;;10.50;99.90;;;;;;5025593;28;20427;-60
2023/02/18 08:33:03;;;;;;;1.43;1.33;;;10.50;99.90;;;;;;5026152;28;20235;-59
2023/02/18 08:35:28;;;;;;;1.40;1.30;;;10.60;99.90;;;;;;5028370;28;20566;-59
2023/02/18 08:37:54;;;;;;;6.03;2.00;;;10.60;99.70;;;;;;5020087;28;20659;-60
2023/02/18 08:40:20;;;;;;;3.30;1.80;;;10.60;99.90;;;;;;5011861;28;20173;-59
2023/02/18 08:42:46;;;;;;;1.37;1.37;;;10.70;99.50;;;;;;5019293;28;20176;-60
2023/02/18 08:45:11;;;;;;;1.53;1.43;;;10.70;99.40;;;;;;5019261;28;21001;-59
2023/02/18 08:47:37;;;;;;;1.83;1.30;;;10.80;99.50;;;;;;5028180;28;20231;-55
2023/02/18 08:50:04;;;;;;;1.50;1.40;;;10.90;98.60;;;;;;5024378;28;20567;-55
2023/02/18 08:52:30;;;;;;;1.27;1.17;;;11.00;96.10;;;;;;5023236;28;20223;-55
2023/02/18 08:54:56;;;;;;;1.20;1.10;;;11.00;95.30;;;;;;5008640;28;20427;-54
2023/02/18 08:57:21;;;;;;;1.40;1.30;;;11.00;92.10;;;;;;5026138;28;20442;-55
2023/02/18 08:59:47;;;;;;;1.40;1.30;;;11.10;91.40;;;;;;5019061;28;20548;-57
2023/02/18 09:02:13;;;;;;;1.50;1.40;;;11.10;91.40;;;;;;5017214;28;20172;-54
2023/02/18 09:04:39;;;;;;;1.70;1.17;;;11.10;89.10;;;;;;5027871;28;20399;-56
2023/02/18 09:07:04;;;;;;;1.90;1.57;;;11.10;89.70;;;;;;5025181;28;21110;-56
2023/02/18 09:09:30;;;;;;;1.13;1.03;;;11.10;87.60;;;;;;5022883;28;20194;-58
2023/02/18 09:11:56;;;;;;;2.13;1.70;;;11.10;89.60;;;;;;5022353;28;20196;-55
2023/02/18 09:14:22;;;;;;;1.20;1.13;;;11.10;86.90;;;;;;5026949;28;20174;-57
2023/02/18 09:16:47;;;;;;;1.50;1.40;;;11.10;86.00;;;;;;5024332;28;20217;-55
2023/02/18 09:19:13;;;;;;;1.40;1.30;;;11.20;86.10;;;;;;5024799;28;20199;-55
2023/02/18 09:21:38;;;;;;;2.70;1.70;;;11.20;85.10;;;;;;5026915;28;20233;-59
2023/02/18 09:24:04;;;;;;;1.40;1.30;;;11.20;85.70;;;;;;5025679;28;20179;-60
2023/02/18 09:26:30;;;;;;;1.47;1.37;;;11.20;87.10;;;;;;5025841;28;20203;-59
2023/02/18 09:28:56;;;;;;;2.47;1.90;;;11.20;83.40;;;;;;5023176;28;20172;-59
2023/02/18 09:31:24;;;;;;;2.23;1.70;;;11.30;84.30;;;;;;5019488;28;20223;-58
2023/02/18 09:33:53;;;;;;;1.30;1.20;;;11.30;84.60;;;;;;5010985;28;20434;-58
2023/02/18 09:36:22;;;;;;;8.40;1.33;;;11.30;82.90;;;;;;5023040;28;20499;-59
2023/02/18 09:38:48;;;;;;;1.33;1.23;;;11.30;82.50;;;;;;5024511;28;20438;-58
2023/02/18 09:41:26;;;;;;;1.40;1.30;;;11.30;82.10;;;;;;5026142;28;20824;-57
2023/02/18 09:44:05;;;;;;;5.03;1.20;;;11.40;82.00;;;;;;5018903;28;20181;-58
2023/02/18 09:46:34;;;;;;;1.10;1.00;;;11.40;78.90;;;;;;5015878;28;21063;-53
2023/02/18 09:49:11;;;;;;;1.20;1.10;;;11.50;80.00;;;;;;5022442;28;20514;-54
2023/02/18 09:51:37;;;;;;;1.73;1.63;;;11.50;80.10;;;;;;5025055;28;20936;-54
2023/02/18 09:54:03;;;;;;;4.40;1.60;;;11.50;79.00;;;;;;5020968;28;20454;-54
2023/02/18 09:56:33;;;;;;;2.73;1.37;;;11.50;78.80;;;;;;5025323;28;20677;-55
2023/02/18 09:59:04;;;;;;;4.67;1.53;;;11.60;78.90;;;;;;5019321;28;20430;-54
2023/02/18 10:01:36;;;;;;;1.00;1.00;;;11.60;78.20;;;;;;5020912;28;20857;-56
2023/02/18 10:04:26;;;;;;;4.97;1.50;;;11.60;77.30;;;;;;5021599;28;21131;-54
2023/02/18 10:06:53;;;;;;;4.00;1.83;;;11.60;78.10;;;;;;5022067;28;20458;-54
2023/02/18 10:09:23;;;;;;;1.47;1.27;;;11.60;77.90;;;;;;5013601;28;20512;-54
2023/02/18 10:11:53;;;;;;;1.47;1.37;;;11.60;77.20;;;;;;5020413;28;20454;-53
2023/02/18 10:14:19;;;;;;;3.53;1.30;;;11.60;77.20;;;;;;5013526;28;20423;-58
2023/02/18 10:16:47;;;;;;;1.20;1.10;;;11.60;76.80;;;;;;5010789;28;20462;-59
2023/02/18 10:19:28;;;;;;;1.30;1.20;;;11.60;76.10;;;;;;5024851;28;20990;-59
2023/02/18 10:21:55;;;;;;;1.70;1.60;;;11.70;75.50;;;;;;5023300;28;20423;-55
2023/02/18 10:24:49;;;;;;;1.67;1.57;;;11.70;75.60;;;;;;5019535;28;20477;-59
2023/02/18 10:27:29;;;;;;;1.20;1.10;;;11.70;75.90;;;;;;5008660;28;20493;-59
2023/02/18 10:30:01;;;;;;;2.17;1.20;;;11.70;74.40;;;;;;5017640;28;20460;-59
2023/02/18 10:32:34;;;;;;;6.17;1.40;;;11.80;74.70;;;;;;5029085;28;20950;-61
2023/02/18 10:35:17;;;;;;;2.87;1.20;;;11.80;74.90;;;;;;5025399;28;20487;-55
2023/02/18 10:37:57;;;;;;;4.10;1.23;;;11.80;74.10;;;;;;5025719;28;20978;-56
2023/02/18 10:40:22;;;;;;;3.13;1.27;;;11.80;74.20;;;;;;5012855;28;20923;-55
2023/02/18 10:43:26;;;;;;;3.67;1.43;;;11.80;74.30;;;;;;5019584;28;20437;-54
2023/02/18 10:46:07;;;;;;;4.37;1.40;;;11.80;74.30;;;;;;5021143;28;20204;-54
2023/02/18 10:49:11;;;;;;;1.40;1.20;;;11.80;74.90;;;;;;5017139;28;20450;-55
2023/02/18 10:51:41;;;;;;;1.50;1.30;;;11.80;75.20;;;;;;5012312;28;20476;-58
2023/02/18 10:54:07;;;;;;;1.40;1.30;;;11.80;75.50;;;;;;5027017;28;20431;-58
2023/02/18 10:56:34;;;;;;;3.43;1.80;;;11.80;75.60;;;;;;5026157;28;20457;-59
2023/02/18 10:59:17;;;;;;;1.77;1.53;;;11.80;75.80;;;;;;5030043;28;20164;-59
2023/02/18 11:01:44;;;;;;;2.40;1.47;;;11.80;75.40;;;;;;5026224;28;20409;-58
2023/02/18 11:04:16;;;;;;;1.30;1.13;;;11.80;75.40;;;;;;5022773;28;20434;-63
2023/02/18 11:06:46;;;;;;;2.57;1.40;;;11.80;75.30;;;;;;5020018;28;20450;-58
2023/02/18 11:09:31;;;;;;;3.93;1.50;;;11.80;75.00;;;;;;5027936;28;20433;-59
2023/02/18 11:12:03;;;;;;;1.10;1.03;;;11.80;76.60;;;;;;5026664;28;20471;-58
2023/02/18 11:14:44;;;;;;;4.70;1.40;;;11.80;75.00;;;;;;5020181;28;20892;-59
2023/02/18 11:17:18;;;;;;;1.77;1.10;;;11.80;74.20;;;;;;5016505;28;20457;-58
2023/02/18 11:19:55;;;;;;;3.27;1.00;;;11.90;72.00;;;;;;5026407;28;20421;-58
2023/02/18 11:22:31;;;;;;;1.10;1.00;;;11.90;72.10;;;;;;5018042;28;20956;-59
2023/02/18 11:24:59;;;;;;;1.23;1.13;;;11.90;72.50;;;;;;5023748;28;20434;-58
2023/02/18 11:27:40;;;;;;;1.10;1.00;;;12.00;72.60;;;;;;5025565;28;20446;-57
2023/02/18 11:30:27;;;;;;;1.57;1.20;;;12.10;71.20;;;;;;5024476;28;20425;-59
2023/02/18 11:32:57;;;;;;;5.10;1.30;;;12.10;70.10;;;;;;5012544;28;20509;-59
2023/02/18 11:35:27;;;;;;;12.50;2.60;;;12.20;69.60;;;;;;5025269;28;20442;-58
2023/02/18 11:37:56;;;;;;;5.30;2.10;;;12.20;68.80;;;;;;5016868;28;20438;-58
2023/02/18 11:40:31;;;;;;;1.57;1.00;;;12.30;68.60;;;;;;5027460;28;20423;-59
2023/02/18 11:43:13;;;;;;;1.77;1.40;;;12.30;67.50;;;;;;5029395;28;20437;-59
2023/02/18 11:45:38;;;;;;;1.40;1.30;;;12.30;66.80;;;;;;5028630;28;20525;-58
2023/02/18 11:48:14;;;;;;;1.40;1.30;;;12.30;66.60;;;;;;5027557;28;20510;-58
2023/02/18 11:50:39;;;;;;;1.20;1.10;;;12.30;66.30;;;;;;5029918;28;20183;-58
2023/02/18 11:53:29;;;;;;;1.50;1.17;;;12.30;66.20;;;;;;5037319;28;20442;-59
2023/02/18 11:55:57;;;;;;;1.20;1.10;;;12.40;66.20;;;;;;5034589;28;20212;-59
2023/02/18 11:58:24;;;;;;;1.30;1.20;;;12.40;65.80;;;;;;5018314;28;20593;-59
2023/02/18 12:00:54;;;;;;;2.40;1.37;;;12.50;66.10;;;;;;5031560;28;20977;-58
2023/02/18 12:03:44;;;;;;;1.00;1.00;;;12.50;64.90;;;;;;5023039;28;20453;-59
2023/02/18 12:06:32;;;;;;;1.17;1.10;;;12.60;64.60;;;;;;5022085;28;20446;-56
2023/02/18 12:09:34;;;;;;;1.10;1.00;;;12.60;64.20;;;;;;5021034;28;20419;-56
2023/02/18 12:12:18;;;;;;;2.50;1.50;;;12.70;64.30;;;;;;5015107;28;20919;-57
2023/02/18 12:14:44;;;;;;;4.30;1.20;;;12.90;64.20;;;;;;4997693;28;20482;-58
2023/02/18 12:17:51;;;;;;;4.60;1.40;;;13.30;63.50;;;;;;5023079;28;20865;-57
2023/02/18 12:20:42;;;;;;;1.20;1.10;;;13.60;62.40;;;;;;5024157;28;20183;-58
2023/02/18 12:23:19;;;;;;;1.63;1.33;;;14.10;61.60;;;;;;5025489;28;20470;-60
2023/02/18 12:26:05;;;;;;;1.33;1.10;;;14.50;60.30;;;;;;5021680;28;20450;-61
2023/02/18 12:28:41;;;;;;;1.33;1.13;;;14.90;58.70;;;;;;5012470;28;20493;-59
2023/02/18 12:31:16;;;;;;;1.77;1.10;;;15.40;58.00;;;;;;5018059;28;20436;-56
2023/02/18 12:33:59;;;;;;;1.63;1.00;;;15.80;56.80;;;;;;5011359;28;20437;-59
2023/02/18 12:36:37;;;;;;;1.10;1.00;;;15.80;56.30;;;;;;5008136;28;20548;-54
2023/02/18 12:39:42;;;;;;;5.70;1.20;;;15.90;56.00;;;;;;5016764;28;20430;-56
2023/02/18 12:42:37;;;;;;;1.20;1.10;;;15.90;55.70;;;;;;4917476;29;20449;-61
2023/02/18 12:45:39;;;;;;;2.43;1.33;;;15.60;55.60;;;;;;4914477;29;20449;-60
2023/02/18 12:48:22;;;;;;;4.23;0.93;;;15.30;55.90;;;;;;5009876;28;20456;-61
2023/02/18 12:51:09;;;;;;;2.13;1.30;;;15.00;55.80;;;;;;5022950;28;20437;-59
2023/02/18 12:53:41;;;;;;;1.10;1.00;;;14.70;56.60;;;;;;5008361;28;20434;-59
2023/02/18 12:56:06;;;;;;;2.00;0.90;;;14.60;57.20;;;;;;5032350;28;20441;-59
2023/02/18 12:59:00;;;;;;;2.13;1.50;;;14.50;56.70;;;;;;5028011;28;20411;-58
2023/02/18 13:01:52;;;;;;;1.47;1.20;;;14.20;57.00;;;;;;4995866;28;20207;-58
2023/02/18 13:04:47;;;;;;;1.20;1.10;;;13.90;57.30;;;;;;4975509;28;20927;-58
2023/02/18 13:07:32;;;;;;;1.10;1.00;;;13.70;57.50;;;;;;5028251;28;20419;-58
2023/02/18 13:10:01;;;;;;;1.70;1.37;;;13.50;57.30;;;;;;5030904;28;20459;-59
2023/02/18 13:12:49;;;;;;;1.27;1.17;;;13.30;57.50;;;;;;5033493;28;20458;-58